Time;durP1;ratioP1;P1;durP2;ratioP2;P2;SDS_P1;SDS_P2;PMS_P1;PMS_P2;Temp;Humidity;BMP_temperature;BMP_pressure;BME280_temperature;BME280_humidity;BME280_pressure;Samples;Min_cycle;Max_cycle;Signal;HPM_P1;HPM_P2
2021/07/24 00:01:51;;;;;;;18.33;14.85;;;28.70;89.20;;;;;;5041122;28;20556;-73
2021/07/24 00:04:17;;;;;;;18.67;14.93;;;28.70;89.30;;;;;;5045043;28;20168;-73
2021/07/24 00:06:44;;;;;;;15.95;14.35;;;28.70;89.50;;;;;;5035300;28;20043;-72
2021/07/24 00:09:09;;;;;;;16.45;14.88;;;28.70;89.90;;;;;;5018424;28;20045;-72
2021/07/24 00:11:35;;;;;;;19.27;15.88;;;28.70;90.10;;;;;;5028547;28;20052;-72
2021/07/24 00:14:01;;;;;;;18.00;16.13;;;28.60;90.10;;;;;;5048762;28;20547;-70
2021/07/24 00:16:27;;;;;;;17.67;15.88;;;28.70;89.50;;;;;;5035425;28;20419;-72
2021/07/24 00:18:52;;;;;;;18.80;16.27;;;28.60;89.20;;;;;;5030200;28;20125;-73
2021/07/24 00:21:18;;;;;;;19.52;17.55;;;28.70;89.10;;;;;;5035999;28;20036;-72
2021/07/24 00:23:44;;;;;;;18.88;17.08;;;28.70;89.60;;;;;;5048903;28;20038;-72
2021/07/24 00:26:13;;;;;;;19.23;17.33;;;28.70;89.40;;;;;;5038026;28;20033;-72
2021/07/24 00:28:40;;;;;;;20.55;18.33;;;28.70;90.30;;;;;;5034180;28;20046;-72
2021/07/24 00:31:06;;;;;;;23.55;20.52;;;28.60;90.30;;;;;;5040052;28;20045;-71
2021/07/24 00:33:31;;;;;;;24.48;21.88;;;28.60;90.40;;;;;;5033307;28;20180;-72
2021/07/24 00:35:57;;;;;;;23.92;21.48;;;28.60;90.50;;;;;;5028885;28;20033;-72
2021/07/24 00:38:25;;;;;;;27.85;24.88;;;28.70;90.80;;;;;;5031437;28;20111;-73
2021/07/24 00:40:56;;;;;;;30.30;26.85;;;28.60;91.00;;;;;;5028436;28;20781;-72
2021/07/24 00:43:28;;;;;;;28.52;25.58;;;28.60;92.10;;;;;;5022519;28;20045;-72
2021/07/24 00:45:55;;;;;;;28.33;25.30;;;28.60;92.80;;;;;;5025729;28;20032;-72
2021/07/24 00:48:22;;;;;;;29.17;25.52;;;28.60;91.90;;;;;;5020544;28;20136;-73
2021/07/24 00:50:49;;;;;;;30.83;26.55;;;28.60;92.50;;;;;;5031976;28;20038;-72
2021/07/24 00:53:22;;;;;;;30.85;27.35;;;28.60;92.60;;;;;;5039423;28;20045;-72
2021/07/24 00:55:51;;;;;;;30.52;27.35;;;28.50;92.60;;;;;;5047084;28;20037;-73
2021/07/24 00:58:30;;;;;;;32.42;29.00;;;28.50;93.00;;;;;;5040560;28;20037;-71
2021/07/24 01:00:56;;;;;;;32.33;28.83;;;28.40;94.10;;;;;;5029327;28;20037;-71
2021/07/24 01:03:22;;;;;;;35.47;29.35;;;28.40;93.00;;;;;;5044175;28;20422;-71
2021/07/24 01:05:54;;;;;;;31.42;28.20;;;28.30;93.20;;;;;;5038091;28;20055;-72
2021/07/24 01:08:20;;;;;;;33.83;30.40;;;28.40;93.40;;;;;;5020686;28;20494;-71
2021/07/24 01:10:50;;;;;;;35.60;31.38;;;28.40;93.00;;;;;;5032500;28;20124;-71
2021/07/24 01:13:16;;;;;;;32.00;28.65;;;28.30;92.70;;;;;;5034921;28;20044;-71
2021/07/24 01:15:52;;;;;;;34.13;30.42;;;28.30;92.90;;;;;;5051173;28;20044;-71
2021/07/24 01:18:19;;;;;;;36.00;31.80;;;28.30;93.20;;;;;;5047236;28;20425;-71
2021/07/24 01:20:45;;;;;;;34.25;29.88;;;28.20;93.00;;;;;;5043174;28;20052;-71
2021/07/24 01:23:15;;;;;;;37.50;31.63;;;28.20;92.60;;;;;;5026150;28;20437;-71
2021/07/24 01:25:49;;;;;;;33.60;30.20;;;28.30;92.70;;;;;;5025497;28;20052;-71
2021/07/24 01:28:32;;;;;;;29.90;26.85;;;28.30;92.40;;;;;;5038271;28;20132;-70
2021/07/24 01:31:00;;;;;;;28.15;23.80;;;28.30;92.80;;;;;;5022981;28;20076;-71
2021/07/24 01:33:29;;;;;;;29.20;24.73;;;28.30;91.50;;;;;;5042246;28;20123;-71
2021/07/24 01:35:55;;;;;;;27.25;24.55;;;28.20;90.80;;;;;;5047012;28;20133;-71
2021/07/24 01:38:21;;;;;;;28.45;25.48;;;28.10;90.90;;;;;;5043828;28;20128;-71
2021/07/24 01:40:47;;;;;;;28.08;24.48;;;28.10;90.80;;;;;;5045007;28;20067;-71
2021/07/24 01:43:13;;;;;;;28.17;24.88;;;28.10;90.60;;;;;;5042204;28;20538;-71
2021/07/24 01:45:41;;;;;;;27.45;24.55;;;28.10;90.50;;;;;;5032687;28;20444;-71
2021/07/24 01:48:23;;;;;;;28.63;24.35;;;28.00;91.10;;;;;;5024370;28;20064;-70
2021/07/24 01:53:37;;;;;;;28.27;25.40;;;28.00;91.10;;;;;;5005029;28;20053;-69
2021/07/24 01:56:09;;;;;;;30.80;27.65;;;27.90;91.10;;;;;;5029878;28;20030;-70
2021/07/24 01:58:37;;;;;;;31.15;27.85;;;27.90;91.20;;;;;;5034105;28;20045;-71
2021/07/24 02:01:07;;;;;;;28.42;25.25;;;28.00;91.40;;;;;;5039000;28;20038;-70
2021/07/24 02:03:35;;;;;;;29.05;25.95;;;28.10;91.20;;;;;;5045392;28;20045;-70
2021/07/24 02:06:02;;;;;;;29.63;26.63;;;28.00;90.80;;;;;;5040452;28;20116;-69
2021/07/24 02:08:29;;;;;;;32.45;27.50;;;28.00;91.00;;;;;;5030316;28;20036;-71
2021/07/24 02:10:55;;;;;;;29.33;25.92;;;27.90;91.30;;;;;;5030396;28;20361;-71
2021/07/24 02:13:26;;;;;;;30.42;27.15;;;27.80;91.70;;;;;;5025843;28;20044;-72
2021/07/24 02:15:52;;;;;;;29.23;26.05;;;27.70;92.00;;;;;;5022018;28;20037;-71
2021/07/24 02:18:20;;;;;;;28.40;25.30;;;27.60;92.00;;;;;;5027824;28;20036;-71
2021/07/24 02:20:46;;;;;;;25.70;23.10;;;27.50;91.50;;;;;;5015398;28;20111;-71
2021/07/24 02:23:12;;;;;;;24.40;21.90;;;27.50;91.40;;;;;;5041583;28;20040;-71
2021/07/24 02:25:38;;;;;;;23.17;20.60;;;27.60;90.80;;;;;;5031733;28;20517;-71
2021/07/24 02:28:04;;;;;;;24.95;21.08;;;27.60;90.30;;;;;;5047242;28;20048;-71
2021/07/24 02:30:29;;;;;;;24.10;21.52;;;27.60;90.10;;;;;;5042828;28;20036;-72
2021/07/24 02:32:55;;;;;;;28.08;25.10;;;27.50;90.10;;;;;;5042398;28;20466;-72
2021/07/24 02:35:20;;;;;;;27.38;24.60;;;27.40;91.10;;;;;;5030311;28;20138;-72
2021/07/24 02:37:46;;;;;;;33.70;24.92;;;27.30;91.70;;;;;;5027007;28;20043;-72
2021/07/24 02:40:12;;;;;;;28.08;25.00;;;27.30;92.00;;;;;;5028792;28;20050;-72
2021/07/24 02:42:37;;;;;;;25.70;22.95;;;27.30;91.90;;;;;;5034581;28;20080;-71
2021/07/24 02:45:04;;;;;;;28.75;24.67;;;27.20;92.10;;;;;;5029454;28;20167;-72
2021/07/24 02:47:31;;;;;;;27.17;23.10;;;27.20;91.90;;;;;;5038632;28;20414;-72
2021/07/24 02:49:56;;;;;;;27.83;24.95;;;27.00;92.20;;;;;;5046619;28;20037;-72
2021/07/24 02:52:22;;;;;;;26.02;23.23;;;27.00;92.30;;;;;;5042736;28;20116;-71
2021/07/24 02:54:48;;;;;;;24.85;22.35;;;26.80;92.50;;;;;;5027081;28;20037;-70
2021/07/24 02:57:14;;;;;;;29.58;23.65;;;26.90;92.70;;;;;;5032890;28;20519;-71
2021/07/24 02:59:39;;;;;;;26.52;23.55;;;26.90;92.50;;;;;;5036216;28;21895;-71
2021/07/24 03:02:05;;;;;;;28.20;24.15;;;26.90;92.90;;;;;;5027042;28;20044;-70
2021/07/24 03:04:30;;;;;;;27.50;23.05;;;26.90;92.50;;;;;;5026618;28;20038;-71
2021/07/24 03:06:56;;;;;;;26.58;23.75;;;26.90;92.40;;;;;;5035115;28;20486;-70
2021/07/24 03:09:22;;;;;;;26.40;23.63;;;27.00;92.60;;;;;;5030477;28;20049;-71
2021/07/24 03:11:47;;;;;;;25.73;22.17;;;27.10;92.10;;;;;;5029034;28;20042;-71
2021/07/24 03:14:13;;;;;;;24.15;21.63;;;26.90;91.90;;;;;;5039247;28;20033;-71
2021/07/24 03:16:38;;;;;;;22.83;20.30;;;26.80;92.00;;;;;;5039208;28;20049;-70
2021/07/24 03:19:04;;;;;;;24.35;19.20;;;26.70;92.20;;;;;;5023041;28;20057;-69
2021/07/24 03:21:30;;;;;;;22.90;20.38;;;26.70;92.00;;;;;;5044728;28;20123;-71
2021/07/24 03:23:56;;;;;;;22.13;19.73;;;26.70;92.00;;;;;;5035558;28;20040;-71
2021/07/24 03:26:21;;;;;;;22.67;18.73;;;26.80;92.00;;;;;;5042372;28;20056;-70
2021/07/24 03:28:47;;;;;;;22.23;19.92;;;26.80;91.40;;;;;;5034842;28;20395;-70
2021/07/24 03:31:13;;;;;;;22.08;19.05;;;26.80;91.60;;;;;;5037606;28;20037;-70
2021/07/24 03:33:39;;;;;;;20.77;18.48;;;26.90;91.50;;;;;;5044531;28;20056;-70
2021/07/24 03:36:05;;;;;;;22.75;19.23;;;26.90;91.40;;;;;;5043646;28;20045;-69
2021/07/24 03:38:31;;;;;;;24.00;20.15;;;26.90;91.40;;;;;;5035459;28;20029;-70
2021/07/24 03:40:57;;;;;;;23.67;20.38;;;26.90;91.40;;;;;;5050870;28;20044;-71
2021/07/24 03:43:22;;;;;;;20.90;18.90;;;26.80;91.60;;;;;;5032733;28;20033;-71
2021/07/24 03:45:48;;;;;;;20.98;18.88;;;26.80;91.60;;;;;;5051610;28;20512;-70
2021/07/24 03:48:14;;;;;;;21.20;18.35;;;26.90;91.20;;;;;;5032605;28;20052;-70
2021/07/24 03:50:42;;;;;;;20.42;18.33;;;26.90;91.00;;;;;;5035252;28;20045;-70
2021/07/24 03:53:08;;;;;;;20.85;18.67;;;26.90;91.10;;;;;;5026704;28;20200;-70
2021/07/24 03:55:37;;;;;;;19.98;17.50;;;27.00;90.70;;;;;;5028528;28;20139;-70
2021/07/24 03:58:03;;;;;;;21.17;18.30;;;26.90;90.90;;;;;;5041055;28;20049;-69
2021/07/24 04:00:40;;;;;;;20.88;18.73;;;27.00;90.70;;;;;;5032949;28;20053;-72
2021/07/24 04:03:06;;;;;;;20.60;17.98;;;27.00;90.70;;;;;;5044215;28;20537;-72
2021/07/24 04:05:40;;;;;;;20.95;18.80;;;27.00;90.50;;;;;;5039082;28;20068;-65
2021/07/24 04:08:29;;;;;;;20.80;18.17;;;26.80;90.60;;;;;;5050084;28;20045;-70
2021/07/24 04:10:54;;;;;;;22.17;18.33;;;26.90;91.50;;;;;;5044257;28;20386;-70
2021/07/24 04:13:20;;;;;;;19.83;17.67;;;26.90;90.70;;;;;;5049682;28;20036;-72
2021/07/24 04:15:46;;;;;;;19.27;17.27;;;26.90;90.70;;;;;;5045878;28;20490;-72
2021/07/24 04:18:12;;;;;;;19.42;15.95;;;26.90;90.90;;;;;;5053685;28;20040;-72
2021/07/24 04:20:38;;;;;;;19.30;17.20;;;27.00;90.70;;;;;;5039761;28;20492;-72
2021/07/24 04:23:05;;;;;;;18.85;17.05;;;27.00;90.60;;;;;;5024728;28;20029;-71
2021/07/24 04:25:40;;;;;;;24.73;17.58;;;26.90;90.80;;;;;;5033243;28;20043;-72
2021/07/24 04:28:06;;;;;;;20.25;17.33;;;26.80;90.50;;;;;;5039576;28;20063;-71
2021/07/24 04:30:33;;;;;;;21.08;18.30;;;26.70;90.60;;;;;;5032273;28;20340;-58
2021/07/24 04:32:58;;;;;;;24.55;17.98;;;26.80;90.70;;;;;;5032264;28;20094;-71
2021/07/24 04:35:24;;;;;;;21.10;17.52;;;26.80;90.70;;;;;;5038972;28;20037;-71
2021/07/24 04:37:49;;;;;;;21.92;16.20;;;26.70;90.40;;;;;;5041781;28;20053;-71
2021/07/24 04:40:15;;;;;;;18.58;15.70;;;26.80;90.40;;;;;;5016005;28;20487;-71
2021/07/24 04:42:40;;;;;;;19.05;16.50;;;26.70;90.60;;;;;;5038651;28;20036;-71
2021/07/24 04:45:07;;;;;;;17.52;15.52;;;26.70;90.80;;;;;;5028853;28;20041;-71
2021/07/24 04:47:35;;;;;;;20.00;16.85;;;26.80;91.00;;;;;;5029311;28;20098;-70
2021/07/24 04:50:01;;;;;;;18.77;16.77;;;26.70;91.10;;;;;;5032584;28;20040;-71
2021/07/24 04:52:29;;;;;;;17.50;14.52;;;26.80;91.10;;;;;;5026486;28;20406;-71
2021/07/24 04:54:55;;;;;;;16.35;14.82;;;26.80;91.20;;;;;;5033138;28;20056;-71
2021/07/24 04:57:21;;;;;;;16.90;15.20;;;26.80;90.90;;;;;;5034394;28;20033;-71
2021/07/24 04:59:48;;;;;;;21.13;16.05;;;26.90;91.00;;;;;;5028989;28;20501;-71
2021/07/24 05:02:15;;;;;;;17.70;15.88;;;26.80;90.90;;;;;;5018745;28;20041;-71
2021/07/24 05:04:41;;;;;;;17.38;15.57;;;26.80;91.10;;;;;;5049875;28;20175;-71
2021/07/24 05:07:07;;;;;;;17.65;15.85;;;26.70;91.40;;;;;;5036317;28;20495;-71
2021/07/24 05:10:00;;;;;;;17.85;16.02;;;26.80;91.10;;;;;;5026417;28;20034;-70
2021/07/24 05:12:26;;;;;;;18.40;15.55;;;26.90;91.50;;;;;;5024314;28;20042;-71
2021/07/24 05:14:51;;;;;;;17.15;15.32;;;26.80;91.10;;;;;;5026106;28;20125;-71
2021/07/24 05:17:17;;;;;;;16.63;14.75;;;26.80;90.80;;;;;;5030350;28;20036;-71
2021/07/24 05:19:46;;;;;;;17.48;15.05;;;26.90;90.80;;;;;;5031264;28;20498;-72
2021/07/24 05:22:13;;;;;;;18.70;16.77;;;26.90;91.10;;;;;;5040014;28;20040;-71
2021/07/24 05:24:43;;;;;;;17.88;15.95;;;26.80;90.70;;;;;;5048306;28;20033;-71
2021/07/24 05:27:12;;;;;;;20.75;16.02;;;26.90;90.80;;;;;;5044358;28;20122;-71
2021/07/24 05:29:38;;;;;;;17.25;15.55;;;26.80;91.00;;;;;;5044880;28;20475;-70
2021/07/24 05:32:04;;;;;;;17.58;15.48;;;26.80;91.00;;;;;;5046015;28;20040;-70
2021/07/24 05:34:30;;;;;;;17.60;15.75;;;26.70;91.30;;;;;;5044639;28;20095;-71
2021/07/24 05:36:55;;;;;;;18.95;14.88;;;26.60;91.60;;;;;;5043387;28;20484;-71
2021/07/24 05:39:21;;;;;;;18.05;15.23;;;26.60;91.40;;;;;;5034699;28;20028;-70
2021/07/24 05:41:47;;;;;;;17.38;15.57;;;26.70;91.00;;;;;;5060664;28;20112;-70
2021/07/24 05:44:17;;;;;;;16.17;14.00;;;26.60;91.00;;;;;;5029087;28;20041;-71
2021/07/24 05:46:43;;;;;;;16.13;14.38;;;26.70;91.00;;;;;;5046202;28;20483;-71
2021/07/24 05:49:08;;;;;;;17.45;15.43;;;26.70;91.10;;;;;;5033873;28;20063;-71
2021/07/24 05:51:41;;;;;;;16.88;15.13;;;26.80;91.10;;;;;;5027774;28;20068;-70
2021/07/24 05:54:07;;;;;;;17.38;15.52;;;26.90;91.10;;;;;;5031894;28;20465;-71
2021/07/24 05:56:35;;;;;;;15.60;14.00;;;26.90;91.10;;;;;;5035435;28;20576;-70
2021/07/24 05:59:00;;;;;;;16.48;14.77;;;27.00;90.80;;;;;;5043749;28;20037;-70
2021/07/24 06:01:26;;;;;;;16.98;15.20;;;27.00;90.70;;;;;;5039547;28;20033;-71
2021/07/24 06:03:51;;;;;;;17.13;15.52;;;27.00;90.50;;;;;;5027475;28;20048;-71
2021/07/24 06:06:17;;;;;;;20.38;14.27;;;27.00;90.60;;;;;;5029602;28;20029;-71
2021/07/24 06:08:43;;;;;;;16.83;14.95;;;27.00;90.30;;;;;;5045353;28;20141;-71
2021/07/24 06:11:08;;;;;;;18.02;16.10;;;27.00;90.60;;;;;;5038396;28;20041;-71
2021/07/24 06:13:52;;;;;;;17.48;15.55;;;27.00;90.70;;;;;;5031102;28;20068;-70
2021/07/24 06:16:18;;;;;;;15.95;14.20;;;27.00;91.40;;;;;;5022658;28;20036;-71
2021/07/24 06:18:44;;;;;;;17.15;15.35;;;27.00;90.80;;;;;;5033317;28;20041;-71
2021/07/24 06:21:16;;;;;;;16.88;15.07;;;27.00;90.60;;;;;;5040363;28;20099;-71
2021/07/24 06:23:42;;;;;;;15.20;13.52;;;26.90;90.70;;;;;;5030373;28;20041;-71
2021/07/24 06:26:09;;;;;;;16.60;13.85;;;27.00;90.50;;;;;;5025992;28;20544;-72
2021/07/24 06:28:35;;;;;;;18.77;14.32;;;27.00;90.40;;;;;;5032468;28;20057;-70
2021/07/24 06:31:40;;;;;;;16.88;13.98;;;27.10;90.50;;;;;;5045832;28;20060;-72
2021/07/24 06:34:06;;;;;;;16.95;14.75;;;27.10;91.00;;;;;;4982042;28;20045;-71
2021/07/24 06:36:37;;;;;;;17.52;14.98;;;27.00;90.90;;;;;;5025145;28;20068;-71
2021/07/24 06:39:03;;;;;;;16.80;15.00;;;27.00;90.90;;;;;;5019607;28;20502;-60
2021/07/24 06:41:31;;;;;;;15.48;13.27;;;27.10;90.60;;;;;;5041227;28;20029;-71
2021/07/24 06:43:57;;;;;;;15.70;13.88;;;27.20;90.40;;;;;;5034203;28;20467;-72
2021/07/24 06:46:23;;;;;;;16.08;14.48;;;27.30;90.40;;;;;;5021965;28;21741;-72
2021/07/24 06:48:49;;;;;;;17.15;13.88;;;27.30;89.70;;;;;;5024786;28;20041;-72
2021/07/24 06:51:14;;;;;;;16.88;14.90;;;27.20;90.30;;;;;;5024060;28;20044;-72
2021/07/24 06:53:40;;;;;;;17.42;13.63;;;27.20;90.00;;;;;;5025152;28;20049;-71
2021/07/24 06:56:05;;;;;;;14.38;12.90;;;27.10;90.40;;;;;;5035030;28;20033;-71
2021/07/24 06:58:32;;;;;;;15.30;13.82;;;27.30;90.00;;;;;;5033758;28;20459;-72
2021/07/24 07:00:58;;;;;;;16.95;14.70;;;27.30;89.70;;;;;;5043558;28;20483;-72
2021/07/24 07:03:24;;;;;;;15.93;13.10;;;27.30;89.30;;;;;;5035810;28;20056;-72
2021/07/24 07:05:50;;;;;;;15.63;13.15;;;27.40;88.90;;;;;;5039469;28;20461;-72
2021/07/24 07:08:16;;;;;;;13.90;12.25;;;27.50;88.30;;;;;;5025436;28;20053;-70
2021/07/24 07:10:42;;;;;;;17.85;13.98;;;27.60;87.30;;;;;;5063577;28;20033;-70
2021/07/24 07:13:07;;;;;;;14.98;13.27;;;27.70;87.30;;;;;;5037555;28;20127;-71
2021/07/24 07:15:33;;;;;;;15.15;13.48;;;27.70;87.10;;;;;;5044607;28;20041;-67
2021/07/24 07:17:59;;;;;;;13.95;12.50;;;27.70;87.10;;;;;;5022971;28;20056;-70
2021/07/24 07:20:25;;;;;;;16.08;12.88;;;27.70;87.30;;;;;;5029851;28;20045;-71
2021/07/24 07:22:50;;;;;;;14.52;13.10;;;27.70;86.70;;;;;;5036291;28;20073;-71
2021/07/24 07:25:16;;;;;;;14.55;12.82;;;27.60;87.00;;;;;;5050026;28;20029;-71
2021/07/24 07:27:45;;;;;;;13.73;12.32;;;27.60;86.70;;;;;;5017563;28;20049;-70
2021/07/24 07:30:13;;;;;;;15.70;14.13;;;27.70;86.40;;;;;;5050014;28;20471;-70
2021/07/24 07:32:39;;;;;;;13.23;12.02;;;27.70;86.90;;;;;;5014434;28;20044;-70
2021/07/24 07:35:05;;;;;;;13.60;12.20;;;27.80;86.20;;;;;;5040503;28;20041;-69
2021/07/24 07:37:32;;;;;;;15.30;13.70;;;28.00;85.60;;;;;;5026951;28;20455;-70
2021/07/24 07:39:58;;;;;;;14.55;13.13;;;28.00;84.40;;;;;;5032603;28;20038;-71
2021/07/24 07:42:23;;;;;;;14.55;12.48;;;28.00;84.50;;;;;;5043217;28;20402;-71
2021/07/24 07:44:49;;;;;;;14.55;13.05;;;28.10;84.30;;;;;;5027679;28;20042;-72
2021/07/24 07:47:14;;;;;;;14.93;13.35;;;28.20;84.30;;;;;;5030386;28;20045;-72
2021/07/24 07:49:40;;;;;;;13.95;12.45;;;28.20;84.00;;;;;;5015359;28;20112;-72
2021/07/24 07:52:07;;;;;;;14.43;13.02;;;28.20;83.80;;;;;;5041044;28;20046;-72
2021/07/24 07:54:44;;;;;;;16.63;14.95;;;28.40;84.10;;;;;;5019124;28;20491;-72
2021/07/24 07:57:10;;;;;;;16.77;15.10;;;28.50;85.40;;;;;;5022913;28;20052;-72
2021/07/24 07:59:35;;;;;;;17.73;15.95;;;28.40;84.40;;;;;;5053660;28;20111;-72
2021/07/24 08:02:01;;;;;;;16.15;14.45;;;28.60;84.10;;;;;;5049495;28;20108;-72
2021/07/24 08:04:27;;;;;;;17.88;15.55;;;28.60;83.50;;;;;;5036728;28;20045;-72
2021/07/24 08:06:52;;;;;;;16.88;14.25;;;28.60;84.50;;;;;;5027636;28;20080;-70
2021/07/24 08:09:18;;;;;;;17.52;15.82;;;28.70;84.50;;;;;;5026651;28;20472;-70
2021/07/24 08:11:43;;;;;;;20.42;15.85;;;28.50;84.40;;;;;;5043234;28;20151;-71
2021/07/24 08:14:09;;;;;;;17.48;15.07;;;28.50;84.80;;;;;;5036066;28;20045;-71
2021/07/24 08:16:34;;;;;;;17.25;15.32;;;28.50;84.50;;;;;;5034928;28;20033;-68
2021/07/24 08:19:03;;;;;;;19.60;15.57;;;28.60;84.40;;;;;;5021214;28;20111;-71
2021/07/24 08:21:29;;;;;;;17.77;15.90;;;28.60;84.70;;;;;;5034795;28;20543;-71
2021/07/24 08:23:54;;;;;;;19.92;17.42;;;28.70;85.20;;;;;;5041159;28;20152;-71
2021/07/24 08:26:20;;;;;;;16.58;15.02;;;28.60;84.50;;;;;;5031603;28;20454;-71
2021/07/24 08:28:45;;;;;;;18.17;14.73;;;28.80;83.60;;;;;;5052249;28;20057;-71
2021/07/24 08:31:15;;;;;;;18.00;15.60;;;29.00;81.60;;;;;;5029054;28;20030;-71
2021/07/24 08:34:25;;;;;;;16.38;14.68;;;29.00;79.20;;;;;;5045729;28;20628;-71
2021/07/24 08:36:50;;;;;;;14.57;12.55;;;28.90;79.30;;;;;;5011709;28;20116;-71
2021/07/24 08:39:16;;;;;;;15.38;13.85;;;29.00;80.40;;;;;;5039020;28;20179;-72
2021/07/24 08:41:42;;;;;;;16.52;14.32;;;29.10;80.00;;;;;;5031538;28;20052;-71
2021/07/24 08:44:16;;;;;;;15.57;14.07;;;29.00;79.50;;;;;;5043600;28;20036;-71
2021/07/24 08:46:42;;;;;;;16.25;13.85;;;29.20;78.70;;;;;;5033839;28;20043;-70
2021/07/24 08:49:08;;;;;;;15.73;13.23;;;29.30;78.30;;;;;;5027768;28;20128;-70
2021/07/24 08:51:36;;;;;;;18.95;15.57;;;29.30;78.50;;;;;;5024322;28;20047;-71
2021/07/24 08:54:04;;;;;;;17.40;14.23;;;29.40;77.40;;;;;;5031248;28;20034;-71
2021/07/24 08:56:34;;;;;;;20.00;16.65;;;29.60;77.20;;;;;;5036275;28;20048;-71
2021/07/24 08:59:03;;;;;;;15.80;14.18;;;29.70;76.50;;;;;;5009904;28;20041;-71
2021/07/24 09:01:30;;;;;;;18.98;14.48;;;29.60;76.90;;;;;;5006926;28;20045;-71
2021/07/24 09:04:01;;;;;;;15.68;14.05;;;29.50;77.10;;;;;;5036666;28;20048;-71
2021/07/24 09:06:30;;;;;;;17.92;15.25;;;29.50;77.50;;;;;;5018937;28;20045;-71
2021/07/24 09:08:56;;;;;;;16.48;13.27;;;29.50;77.00;;;;;;5035575;28;20044;-71
2021/07/24 09:11:22;;;;;;;16.45;13.32;;;29.60;75.40;;;;;;5043426;28;20775;-71
2021/07/24 09:13:48;;;;;;;14.90;12.73;;;29.70;74.80;;;;;;5044331;28;20029;-71
2021/07/24 09:16:53;;;;;;;15.85;14.18;;;29.80;74.00;;;;;;5042760;28;20123;-71
2021/07/24 09:19:19;;;;;;;20.30;13.93;;;29.80;74.40;;;;;;5006418;28;20042;-71
2021/07/24 09:21:45;;;;;;;16.23;13.05;;;29.70;75.10;;;;;;5005770;28;20038;-71
2021/07/24 09:24:22;;;;;;;17.90;15.43;;;29.80;74.50;;;;;;5003728;28;20057;-71
2021/07/24 09:26:47;;;;;;;17.48;15.60;;;29.90;74.20;;;;;;5003314;28;20041;-71
2021/07/24 09:29:16;;;;;;;15.68;14.05;;;29.80;74.90;;;;;;5011047;28;20050;-71
2021/07/24 09:31:43;;;;;;;16.90;13.80;;;29.90;74.40;;;;;;5031508;28;20038;-71
2021/07/24 09:34:10;;;;;;;20.15;15.95;;;30.00;74.40;;;;;;5009776;28;20807;-71
2021/07/24 09:36:37;;;;;;;17.73;15.48;;;30.00;73.20;;;;;;5010266;28;20053;-69
2021/07/24 09:39:29;;;;;;;15.93;13.93;;;30.10;72.70;;;;;;5011296;28;20033;-71
2021/07/24 09:41:55;;;;;;;16.20;12.35;;;30.10;70.20;;;;;;4974440;28;20029;-71
2021/07/24 09:44:30;;;;;;;16.15;13.80;;;30.00;71.50;;;;;;5002965;28;20064;-71
2021/07/24 09:46:57;;;;;;;17.70;13.68;;;30.20;70.70;;;;;;5021419;28;20046;-72
2021/07/24 09:49:40;;;;;;;14.40;12.88;;;30.00;71.30;;;;;;5022272;28;20049;-72
2021/07/24 09:52:11;;;;;;;15.18;13.43;;;30.20;72.00;;;;;;5035246;28;20483;-71
2021/07/24 09:54:37;;;;;;;17.00;12.55;;;30.20;72.70;;;;;;5016161;28;20120;-71
2021/07/24 09:57:03;;;;;;;19.08;14.27;;;30.40;71.40;;;;;;5012493;28;20129;-72
2021/07/24 09:59:30;;;;;;;16.17;14.52;;;30.40;70.80;;;;;;5003424;28;20080;-72
2021/07/24 10:02:07;;;;;;;17.25;14.98;;;30.40;70.30;;;;;;5027248;28;20050;-72
2021/07/24 10:04:37;;;;;;;18.00;14.13;;;30.50;70.60;;;;;;5010529;28;20053;-72
2021/07/24 10:07:07;;;;;;;18.02;15.32;;;30.60;71.90;;;;;;5008258;28;20081;-72
2021/07/24 10:09:40;;;;;;;17.52;15.68;;;30.70;71.10;;;;;;5010483;28;20046;-72
2021/07/24 10:12:13;;;;;;;19.40;15.05;;;30.70;70.90;;;;;;5015671;28;20048;-72
2021/07/24 10:14:39;;;;;;;15.35;13.70;;;30.70;70.30;;;;;;5012059;28;20168;-72
2021/07/24 10:17:06;;;;;;;14.63;13.18;;;30.80;69.60;;;;;;5027520;28;20044;-63
2021/07/24 10:19:31;;;;;;;13.18;11.00;;;30.90;68.50;;;;;;5022392;28;20057;-72
2021/07/24 10:22:01;;;;;;;17.52;10.05;;;30.90;66.60;;;;;;5033364;28;20060;-72
2021/07/24 10:24:28;;;;;;;12.10;10.93;;;31.10;63.10;;;;;;5035037;28;20057;-72
2021/07/24 10:27:11;;;;;;;12.15;10.55;;;31.10;62.90;;;;;;5032793;28;20045;-72
2021/07/24 10:29:52;;;;;;;9.70;8.70;;;31.20;60.20;;;;;;5030486;28;20068;-72
2021/07/24 10:32:25;;;;;;;13.40;9.77;;;31.30;59.50;;;;;;5039379;28;20053;-72
2021/07/24 10:34:52;;;;;;;10.77;9.68;;;31.40;59.70;;;;;;5032756;28;20059;-72
2021/07/24 10:37:46;;;;;;;9.88;8.77;;;31.50;59.30;;;;;;5043421;28;20044;-71
2021/07/24 10:40:33;;;;;;;10.38;9.38;;;31.50;56.20;;;;;;5010540;28;20053;-72
2021/07/24 10:43:02;;;;;;;12.27;9.82;;;31.50;55.50;;;;;;5030983;28;20496;-71
2021/07/24 10:45:31;;;;;;;12.60;10.75;;;31.70;58.00;;;;;;5034211;28;20048;-72
2021/07/24 10:48:14;;;;;;;11.38;10.27;;;31.70;57.60;;;;;;5021517;28;20076;-72
2021/07/24 10:51:00;;;;;;;12.70;10.00;;;31.70;57.70;;;;;;5011867;28;20056;-71
2021/07/24 10:54:02;;;;;;;11.40;10.23;;;31.90;57.30;;;;;;5026668;28;20044;-72
2021/07/24 10:56:37;;;;;;;13.05;11.68;;;31.90;57.70;;;;;;4922131;28;21018;-71
2021/07/24 10:59:24;;;;;;;11.50;10.23;;;32.20;56.80;;;;;;5023151;28;20423;-71
2021/07/24 11:01:54;;;;;;;11.85;10.75;;;32.30;57.60;;;;;;5017888;28;20048;-72
2021/07/24 11:04:38;;;;;;;11.80;9.13;;;32.50;57.00;;;;;;5044319;28;20416;-68
2021/07/24 11:07:13;;;;;;;13.77;10.70;;;32.70;56.30;;;;;;5005545;28;20096;-72
2021/07/24 11:09:43;;;;;;;11.40;9.85;;;32.80;56.40;;;;;;5025245;28;20040;-71
2021/07/24 11:12:10;;;;;;;11.82;10.60;;;32.80;56.00;;;;;;5038026;28;20038;-71
2021/07/24 11:14:41;;;;;;;11.25;10.23;;;33.90;53.90;;;;;;5025984;28;20052;-71
2021/07/24 11:17:12;;;;;;;12.75;10.40;;;34.60;51.50;;;;;;5027900;28;20120;-71
2021/07/24 11:19:44;;;;;;;12.18;10.98;;;34.50;50.90;;;;;;5027654;28;20136;-71
2021/07/24 11:22:10;;;;;;;12.43;11.20;;;34.60;50.60;;;;;;5024063;28;20124;-71
2021/07/24 11:24:36;;;;;;;12.30;11.07;;;34.40;50.30;;;;;;5025365;28;20132;-70
2021/07/24 11:27:02;;;;;;;12.55;10.63;;;34.70;50.90;;;;;;5023509;28;20052;-71
2021/07/24 11:29:28;;;;;;;12.27;11.10;;;34.50;51.20;;;;;;5027165;28;20053;-72
2021/07/24 11:31:54;;;;;;;11.38;10.32;;;34.30;51.10;;;;;;5025884;28;20056;-72
2021/07/24 11:34:27;;;;;;;11.95;10.70;;;34.30;50.80;;;;;;5024761;28;20115;-72
2021/07/24 11:37:46;;;;;;;13.18;11.18;;;34.70;50.20;;;;;;5031409;28;20036;-72
2021/07/24 11:40:15;;;;;;;12.48;11.30;;;35.00;53.10;;;;;;4935089;28;20057;-72
2021/07/24 11:42:42;;;;;;;11.85;10.77;;;34.90;49.80;;;;;;5024826;28;20044;-72
2021/07/24 11:45:08;;;;;;;13.88;11.52;;;34.90;51.20;;;;;;5034838;28;20041;-73
2021/07/24 11:47:34;;;;;;;13.43;12.13;;;34.80;51.90;;;;;;5033392;28;20678;-74
2021/07/24 11:50:19;;;;;;;13.32;11.80;;;34.90;52.30;;;;;;5035235;28;20174;-73
2021/07/24 11:52:49;;;;;;;13.82;12.52;;;34.70;52.10;;;;;;4985461;28;20053;-73
2021/07/24 11:55:25;;;;;;;13.43;12.05;;;34.80;52.50;;;;;;5039536;28;20036;-73
2021/07/24 11:58:02;;;;;;;14.57;13.20;;;34.30;52.80;;;;;;5043694;28;20501;-73
2021/07/24 12:00:38;;;;;;;12.70;11.60;;;34.60;52.70;;;;;;5038271;28;20032;-73
2021/07/24 12:03:24;;;;;;;14.00;12.38;;;34.90;51.90;;;;;;5030802;28;20884;-73
2021/07/24 12:05:57;;;;;;;14.90;13.40;;;35.60;53.10;;;;;;5019990;28;20058;-73
2021/07/24 12:08:28;;;;;;;14.00;12.40;;;35.50;52.90;;;;;;5036940;28;20048;-72
2021/07/24 12:10:54;;;;;;;13.18;11.98;;;36.50;48.20;;;;;;5037441;28;20052;-72
2021/07/24 12:13:21;;;;;;;13.57;12.27;;;37.90;45.90;;;;;;5039597;28;20038;-72
2021/07/24 12:15:54;;;;;;;15.35;13.63;;;39.50;43.20;;;;;;5025654;28;20081;-73
2021/07/24 12:18:20;;;;;;;14.90;13.50;;;39.70;42.80;;;;;;5038805;28;20045;-74
2021/07/24 12:20:46;;;;;;;14.30;12.90;;;39.10;43.30;;;;;;5027117;28;20041;-73
2021/07/24 12:23:23;;;;;;;13.57;12.18;;;38.60;44.00;;;;;;5042220;28;20091;-73
2021/07/24 12:26:13;;;;;;;13.30;12.13;;;37.80;43.30;;;;;;5042914;28;20040;-73
2021/07/24 12:28:41;;;;;;;13.60;12.20;;;37.30;44.30;;;;;;5063102;28;20049;-73
2021/07/24 12:31:22;;;;;;;12.75;11.50;;;37.10;45.60;;;;;;5027593;28;20120;-72
2021/07/24 12:34:11;;;;;;;11.60;10.60;;;37.50;43.00;;;;;;5045475;28;20513;-73
2021/07/24 12:36:49;;;;;;;11.55;10.55;;;37.60;43.40;;;;;;5044995;28;20060;-72
2021/07/24 12:39:20;;;;;;;13.15;12.05;;;37.60;42.30;;;;;;5030645;28;20119;-74
2021/07/24 12:41:56;;;;;;;12.60;11.38;;;37.70;42.20;;;;;;5030437;28;20037;-74